Time;durP1;ratioP1;P1;durP2;ratioP2;P2;SDS_P1;SDS_P2;PMS_P1;PMS_P2;Temp;Humidity;BMP_temperature;BMP_pressure;BME280_temperature;BME280_humidity;BME280_pressure;Samples;Min_cycle;Max_cycle;Signal;HPM_P1;HPM_P2
2022/09/09 00:01:30;;;;;;;8.85;1.35;;;;;;;30.55;17.66;101000.66;5008493;28;20049;-84
2022/09/09 00:04:05;;;;;;;3.33;0.75;;;;;;;30.45;16.66;100996.75;5005644;28;20052;-82
2022/09/09 00:06:35;;;;;;;1.50;1.13;;;;;;;30.36;16.63;101003.41;4996094;28;20049;-77
2022/09/09 00:09:13;;;;;;;6.22;0.80;;;;;;;30.27;17.36;101004.72;4996326;28;20076;-81
2022/09/09 00:11:48;;;;;;;3.22;0.63;;;;;;;30.23;17.83;100997.75;4989868;28;20392;-79
2022/09/09 00:14:25;;;;;;;3.00;0.70;;;;;;;30.25;17.41;100995.88;4997132;28;20060;-82
2022/09/09 00:16:57;;;;;;;2.00;0.77;;;;;;;30.20;17.71;100994.38;4997791;28;20050;-79
2022/09/09 00:19:33;;;;;;;4.10;1.00;;;;;;;30.17;17.36;100990.06;4992255;28;20397;-81
2022/09/09 00:22:16;;;;;;;2.58;0.60;;;;;;;30.08;18.21;100982.50;4989728;28;20105;-78
2022/09/09 00:24:47;;;;;;;3.75;0.57;;;;;;;30.01;17.23;100991.75;4987736;28;20065;-82
2022/09/09 00:27:29;;;;;;;3.20;0.40;;;;;;;29.89;17.24;100981.66;4984542;28;20046;-80
2022/09/09 00:30:01;;;;;;;1.65;0.60;;;;;;;29.86;17.63;100977.31;4979077;28;20515;-77
2022/09/09 00:32:35;;;;;;;2.08;0.52;;;;;;;29.85;18.89;100981.81;4989516;28;20394;-76
2022/09/09 00:35:17;;;;;;;4.68;0.57;;;;;;;29.85;18.15;100975.63;4988192;28;20407;-77
2022/09/09 00:37:48;;;;;;;4.93;0.70;;;;;;;29.83;19.90;100973.00;4992613;28;20046;-80
2022/09/09 00:40:26;;;;;;;2.97;0.70;;;;;;;29.79;19.22;100971.41;4991675;28;20121;-81
2022/09/09 00:43:14;;;;;;;3.08;1.38;;;;;;;29.74;18.42;100968.09;4987323;28;20058;-78
2022/09/09 00:46:07;;;;;;;1.65;0.60;;;;;;;29.68;18.45;100972.88;4991847;28;20525;-76
2022/09/09 00:48:50;;;;;;;3.70;0.93;;;;;;;29.62;19.14;100969.53;4985221;28;20555;-77
2022/09/09 00:51:29;;;;;;;5.88;0.90;;;;;;;29.51;19.43;100965.63;4991979;28;20046;-82
2022/09/09 00:54:13;;;;;;;3.10;0.55;;;;;;;29.41;19.74;100965.16;4988250;28;20408;-81
2022/09/09 00:56:48;;;;;;;3.22;0.63;;;;;;;29.37;19.18;100967.13;4991631;28;20685;-79
2022/09/09 00:59:30;;;;;;;2.55;0.60;;;;;;;29.36;18.81;100967.19;4989343;28;20053;-78
2022/09/09 01:02:01;;;;;;;4.38;0.70;;;;;;;29.31;19.82;100963.88;4985302;28;20085;-78
2022/09/09 01:04:38;;;;;;;4.63;0.70;;;;;;;29.24;20.10;100973.94;4989301;28;20130;-77
2022/09/09 01:07:17;;;;;;;1.05;0.50;;;;;;;29.14;19.48;100965.50;5007902;28;20057;-78
2022/09/09 01:09:55;;;;;;;2.55;0.63;;;;;;;29.02;18.43;100953.56;5009217;28;20061;-74
2022/09/09 01:12:33;;;;;;;2.38;0.50;;;;;;;28.90;18.78;100948.75;5010176;28;20049;-85
2022/09/09 01:15:11;;;;;;;3.67;0.85;;;;;;;28.77;18.29;100951.09;5008459;28;20133;-76
2022/09/09 01:17:51;;;;;;;2.45;0.40;;;;;;;28.66;18.50;100950.69;5010717;28;20411;-78
2022/09/09 01:20:26;;;;;;;2.03;0.50;;;;;;;28.55;18.30;100948.50;5009311;28;20246;-77
2022/09/09 01:23:15;;;;;;;1.08;0.47;;;;;;;28.44;18.35;100950.69;5008561;28;20492;-76
2022/09/09 01:26:10;;;;;;;1.35;0.57;;;;;;;28.34;18.85;100949.38;4988928;28;20042;-77
2022/09/09 01:28:40;;;;;;;1.75;0.50;;;;;;;28.24;18.86;100953.31;5008072;28;20468;-76
2022/09/09 01:31:12;;;;;;;0.98;0.57;;;;;;;28.11;18.93;100951.19;4998854;28;20423;-78
2022/09/09 01:33:41;;;;;;;1.88;0.50;;;;;;;28.00;19.61;100950.75;4999073;28;20404;-77
2022/09/09 01:36:14;;;;;;;2.47;0.52;;;;;;;27.93;19.66;100949.25;5006719;28;20488;-75
2022/09/09 01:38:43;;;;;;;1.20;0.40;;;;;;;27.85;20.39;100948.69;5018022;28;20396;-76
2022/09/09 01:41:13;;;;;;;3.63;0.70;;;;;;;27.74;20.09;100949.94;5013159;28;20061;-79
2022/09/09 01:43:42;;;;;;;2.35;0.60;;;;;;;27.63;21.04;100949.50;5008568;28;20050;-76
2022/09/09 01:46:12;;;;;;;3.45;0.50;;;;;;;27.51;20.86;100952.59;5007144;28;20049;-77
2022/09/09 01:48:42;;;;;;;2.03;0.57;;;;;;;27.30;21.42;100933.03;5008274;28;20053;-80
2022/09/09 01:51:11;;;;;;;3.05;0.60;;;;;;;27.23;21.54;100943.00;5007573;28;20082;-78
2022/09/09 01:53:43;;;;;;;2.33;0.55;;;;;;;27.10;21.45;100949.69;5007084;28;20077;-76
2022/09/09 01:56:23;;;;;;;1.33;0.60;;;;;;;27.01;22.17;100945.56;5007832;28;20053;-77
2022/09/09 01:59:04;;;;;;;1.92;0.70;;;;;;;26.88;22.50;100942.47;5010821;28;20049;-82
2022/09/09 02:01:46;;;;;;;2.38;0.60;;;;;;;26.74;23.45;100950.91;5005071;28;20045;-81
2022/09/09 02:04:29;;;;;;;1.25;0.57;;;;;;;26.63;23.44;100942.47;5002628;28;20050;-85
2022/09/09 02:06:58;;;;;;;2.83;0.70;;;;;;;26.54;23.89;100946.28;4978277;28;20059;-85
2022/09/09 02:09:31;;;;;;;1.92;0.70;;;;;;;26.42;23.86;100944.03;4988701;28;20496;-83
2022/09/09 02:12:07;;;;;;;1.55;0.73;;;;;;;26.28;24.03;100951.56;4988039;28;20520;-84
2022/09/09 02:14:42;;;;;;;6.30;0.80;;;;;;;26.13;23.95;100944.97;4988090;28;20097;-82
2022/09/09 02:17:13;;;;;;;4.07;0.95;;;;;;;26.04;24.81;100947.91;4991168;28;20407;-85
2022/09/09 02:19:48;;;;;;;3.30;0.73;;;;;;;25.92;24.93;100943.88;4989597;28;20062;-86
2022/09/09 02:22:19;;;;;;;5.28;0.80;;;;;;;25.75;24.56;100936.41;4982679;28;20043;-84
2022/09/09 02:24:49;;;;;;;2.35;1.10;;;;;;;25.66;24.82;100942.88;4991882;28;20065;-86
2022/09/09 02:27:22;;;;;;;2.88;0.70;;;;;;;25.49;25.36;100934.53;4991974;28;20038;-81
2022/09/09 02:29:53;;;;;;;2.60;0.70;;;;;;;25.31;26.05;100937.72;4991602;28;20500;-86
2022/09/09 02:32:25;;;;;;;2.70;1.00;;;;;;;25.21;26.52;100942.44;4984028;28;20440;-84
2022/09/09 02:34:57;;;;;;;2.00;0.50;;;;;;;25.08;26.45;100939.22;4993525;28;20057;-85
2022/09/09 02:37:31;;;;;;;4.65;0.77;;;;;;;24.94;26.63;100936.06;4990475;28;20045;-77
2022/09/09 02:40:00;;;;;;;4.55;0.80;;;;;;;24.79;26.77;100943.53;4989165;28;20054;-77
2022/09/09 02:42:30;;;;;;;3.25;0.88;;;;;;;24.65;26.83;100927.16;4986140;28;20069;-78
2022/09/09 02:44:59;;;;;;;5.47;0.80;;;;;;;24.53;28.56;100932.75;4985625;28;20050;-76
2022/09/09 02:47:36;;;;;;;2.30;0.60;;;;;;;24.45;27.75;100939.06;4984263;28;20412;-77
2022/09/09 02:50:13;;;;;;;6.78;0.60;;;;;;;24.36;27.85;100934.00;4988173;28;20073;-78
2022/09/09 02:52:58;;;;;;;3.90;0.65;;;;;;;24.25;27.96;100936.03;4983190;28;20050;-79
2022/09/09 02:55:37;;;;;;;2.50;0.88;;;;;;;24.12;28.45;100932.84;4985883;28;20041;-77
2022/09/09 02:58:10;;;;;;;3.97;1.25;;;;;;;24.02;28.56;100934.81;4989659;28;20544;-78
2022/09/09 03:00:41;;;;;;;4.15;1.20;;;;;;;23.91;28.65;100934.19;4991807;28;20059;-79
2022/09/09 03:03:10;;;;;;;3.10;1.70;;;;;;;23.81;30.54;100933.53;4991639;28;20048;-78
2022/09/09 03:05:39;;;;;;;4.38;2.25;;;;;;;23.68;30.76;100928.53;4999199;28;20088;-76
2022/09/09 03:08:08;;;;;;;6.55;2.05;;;;;;;23.55;30.84;100927.94;5010706;28;20570;-76
2022/09/09 03:10:36;;;;;;;2.47;1.13;;;;;;;23.45;29.94;100929.03;5012008;28;20515;-75
2022/09/09 03:13:07;;;;;;;3.60;1.00;;;;;;;23.36;30.00;100933.59;5021676;28;20045;-75
2022/09/09 03:15:37;;;;;;;2.10;1.42;;;;;;;23.27;30.10;100939.06;5003496;28;20049;-75
2022/09/09 03:18:05;;;;;;;7.05;1.27;;;;;;;23.17;29.80;100938.38;5018005;28;20046;-76
2022/09/09 03:20:34;;;;;;;3.25;1.02;;;;;;;23.10;29.64;100936.75;5010957;28;20403;-74
2022/09/09 03:23:03;;;;;;;4.95;0.73;;;;;;;23.02;30.95;100932.53;5009598;28;20460;-75
2022/09/09 03:25:33;;;;;;;2.67;0.68;;;;;;;22.94;32.42;100940.56;5011849;28;20507;-75
2022/09/09 03:28:02;;;;;;;4.68;0.90;;;;;;;22.86;31.64;100938.09;5010186;28;20129;-75
2022/09/09 03:30:32;;;;;;;7.13;0.77;;;;;;;22.85;30.96;100946.00;5012489;28;20058;-74
2022/09/09 03:33:01;;;;;;;1.38;0.52;;;;;;;22.80;31.28;100944.31;5017128;28;20046;-74
2022/09/09 03:35:30;;;;;;;3.40;0.93;;;;;;;22.77;31.18;100941.75;5020369;28;20132;-74
2022/09/09 03:37:58;;;;;;;3.50;0.80;;;;;;;22.72;30.40;100935.69;5009707;28;20492;-73
2022/09/09 03:40:27;;;;;;;4.97;0.80;;;;;;;22.68;30.80;100931.38;5012877;28;20659;-75
2022/09/09 03:42:55;;;;;;;5.40;1.20;;;;;;;22.67;30.69;100937.53;5009041;28;20121;-73
2022/09/09 03:45:24;;;;;;;5.85;1.48;;;;;;;22.66;31.50;100940.22;5009577;28;20472;-73
2022/09/09 03:47:55;;;;;;;2.00;1.27;;;;;;;22.65;31.36;100934.03;5012411;28;20410;-73
2022/09/09 03:50:23;;;;;;;3.75;1.27;;;;;;;22.64;31.82;100945.50;5012564;28;20053;-74
2022/09/09 03:52:52;;;;;;;2.30;0.85;;;;;;;22.60;32.11;100941.16;5006928;28;20054;-75
2022/09/09 03:55:21;;;;;;;2.80;1.00;;;;;;;22.59;32.24;100934.16;5011359;28;20491;-74
2022/09/09 03:57:49;;;;;;;4.28;0.90;;;;;;;22.58;32.75;100933.28;5015892;28;20476;-74
2022/09/09 04:00:18;;;;;;;2.17;0.80;;;;;;;22.58;32.71;100953.50;5007969;28;20050;-74
2022/09/09 04:02:47;;;;;;;2.03;0.80;;;;;;;22.56;34.48;100950.91;5008867;28;20054;-72
2022/09/09 04:05:17;;;;;;;2.10;0.80;;;;;;;22.51;33.61;100947.47;5009561;28;20860;-73
2022/09/09 04:07:46;;;;;;;3.33;1.00;;;;;;;22.48;33.89;100946.66;4987606;28;20697;-73
2022/09/09 04:10:15;;;;;;;3.42;0.80;;;;;;;22.45;34.23;100941.41;4985382;28;20053;-72
2022/09/09 04:12:44;;;;;;;1.60;0.77;;;;;;;22.42;34.65;100941.47;4990353;28;20208;-75
2022/09/09 04:15:12;;;;;;;3.83;1.42;;;;;;;22.36;34.53;100945.97;4989373;28;20042;-76
2022/09/09 04:17:41;;;;;;;2.72;0.82;;;;;;;22.26;34.67;100936.44;4980991;28;20417;-75
2022/09/09 04:20:11;;;;;;;3.85;0.90;;;;;;;22.15;34.89;100933.06;4995530;28;20088;-76
2022/09/09 04:22:41;;;;;;;1.80;0.68;;;;;;;22.03;35.23;100939.41;4986555;28;20432;-72
2022/09/09 04:25:10;;;;;;;4.35;0.98;;;;;;;21.94;34.90;100943.06;5000600;28;20144;-74
2022/09/09 04:27:39;;;;;;;4.45;1.00;;;;;;;21.87;36.06;100944.03;4990434;28;20051;-74
2022/09/09 04:30:08;;;;;;;2.38;0.63;;;;;;;21.79;35.88;100951.19;4988410;28;20044;-80
2022/09/09 04:32:37;;;;;;;2.78;1.00;;;;;;;21.71;35.84;100942.50;4991881;28;20050;-77
2022/09/09 04:35:06;;;;;;;2.92;1.02;;;;;;;21.66;36.11;100945.19;4991046;28;20054;-79
2022/09/09 04:37:35;;;;;;;3.00;1.08;;;;;;;21.63;37.03;100944.38;4989950;28;20042;-81
2022/09/09 04:40:08;;;;;;;4.47;1.67;;;;;;;21.59;37.37;100937.41;4989646;28;20051;-78
2022/09/09 04:42:38;;;;;;;1.98;0.80;;;;;;;21.51;37.44;100946.28;4990857;28;20156;-79
2022/09/09 04:45:10;;;;;;;3.88;1.20;;;;;;;21.50;37.79;100941.03;4990345;28;20483;-77
2022/09/09 04:47:39;;;;;;;2.60;1.00;;;;;;;21.50;37.54;100928.72;4990064;28;20479;-76
2022/09/09 04:50:09;;;;;;;2.20;0.75;;;;;;;21.50;38.49;100934.00;4985105;28;20042;-80
2022/09/09 04:52:38;;;;;;;2.72;0.80;;;;;;;21.51;39.08;100938.38;4989382;28;20113;-77
2022/09/09 04:55:09;;;;;;;2.58;1.00;;;;;;;21.45;37.67;100932.31;4989763;28;20044;-79
2022/09/09 04:57:38;;;;;;;2.75;0.77;;;;;;;21.39;37.82;100935.84;4989471;28;20605;-78
2022/09/09 05:00:08;;;;;;;3.63;1.25;;;;;;;21.33;37.67;100925.41;4990116;28;20082;-78
2022/09/09 05:02:39;;;;;;;2.25;1.00;;;;;;;21.26;38.04;100921.97;4989805;28;20054;-79
2022/09/09 05:05:11;;;;;;;4.20;1.00;;;;;;;21.15;38.15;100915.09;4986138;28;20225;-82
2022/09/09 05:07:39;;;;;;;3.83;0.90;;;;;;;21.08;37.88;100920.44;4990886;28;20050;-80
2022/09/09 05:10:10;;;;;;;2.42;1.00;;;;;;;20.99;38.05;100915.28;4998895;28;20046;-78
2022/09/09 05:12:39;;;;;;;7.38;1.60;;;;;;;20.93;38.25;100910.94;4981702;28;20042;-80
2022/09/09 05:15:09;;;;;;;4.78;1.10;;;;;;;20.86;37.75;100911.03;4999708;28;20046;-79
2022/09/09 05:17:38;;;;;;;5.07;1.10;;;;;;;20.81;38.14;100918.09;4980154;28;20453;-79
2022/09/09 05:20:07;;;;;;;3.05;0.93;;;;;;;20.75;38.21;100918.16;4989649;28;20539;-78
2022/09/09 05:22:36;;;;;;;3.97;0.93;;;;;;;20.68;38.00;100912.97;4996548;28;20053;-77
2022/09/09 05:25:04;;;;;;;6.15;1.00;;;;;;;20.63;38.01;100904.25;4999400;28;20104;-79
2022/09/09 05:27:35;;;;;;;2.40;0.88;;;;;;;20.58;38.14;100902.56;4986343;28;20057;-79
2022/09/09 05:30:04;;;;;;;1.80;0.93;;;;;;;20.53;38.16;100910.44;4990597;28;20053;-75
2022/09/09 05:32:34;;;;;;;2.88;0.90;;;;;;;20.49;38.61;100903.47;4989763;28;20057;-77
2022/09/09 05:35:02;;;;;;;3.20;1.10;;;;;;;20.44;38.39;100906.13;4988503;28;20085;-75
2022/09/09 05:37:32;;;;;;;2.15;0.77;;;;;;;20.43;38.55;100903.50;4991856;28;21197;-74
2022/09/09 05:40:01;;;;;;;2.00;0.70;;;;;;;20.37;39.44;100895.69;4991832;28;20053;-77
2022/09/09 05:42:34;;;;;;;4.00;1.15;;;;;;;20.30;39.16;100902.75;4983946;28;20496;-74
2022/09/09 05:45:02;;;;;;;4.28;0.77;;;;;;;20.22;39.24;100894.94;4987807;28;20101;-75
2022/09/09 05:47:31;;;;;;;5.22;1.10;;;;;;;20.18;39.05;100897.59;4987636;28;20077;-76
2022/09/09 05:49:59;;;;;;;5.78;1.40;;;;;;;20.15;38.36;100887.97;4984761;28;20060;-74
2022/09/09 05:52:28;;;;;;;4.57;0.80;;;;;;;20.12;38.95;100893.25;4998050;28;20500;-75
2022/09/09 05:54:57;;;;;;;2.72;1.00;;;;;;;20.07;38.57;100890.69;4991059;28;20058;-74
2022/09/09 05:57:25;;;;;;;2.50;0.73;;;;;;;20.06;38.70;100885.41;4991464;28;20054;-74
2022/09/09 05:59:56;;;;;;;3.55;0.85;;;;;;;20.04;38.69;100884.56;4986963;28;20050;-75
2022/09/09 06:02:24;;;;;;;3.03;0.77;;;;;;;20.02;38.57;100886.31;4988590;28;20042;-76
2022/09/09 06:04:53;;;;;;;2.63;1.00;;;;;;;19.99;38.61;100884.59;4988109;28;20116;-75
2022/09/09 06:07:21;;;;;;;2.10;0.80;;;;;;;19.95;39.21;100877.66;5007495;28;20067;-75
2022/09/09 06:09:51;;;;;;;2.60;0.75;;;;;;;19.93;38.92;100881.13;5004356;28;21204;-76
2022/09/09 06:12:20;;;;;;;5.50;0.90;;;;;;;19.91;39.37;100875.06;5016549;28;20050;-76
2022/09/09 06:14:50;;;;;;;5.35;1.70;;;;;;;19.88;38.97;100881.16;5013076;28;20065;-79
2022/09/09 06:17:20;;;;;;;3.38;0.93;;;;;;;19.85;38.69;100873.31;5012248;28;20076;-75
2022/09/09 06:19:49;;;;;;;5.03;1.40;;;;;;;19.75;38.38;100867.28;5007541;28;20052;-74
2022/09/09 06:22:18;;;;;;;3.72;0.93;;;;;;;19.78;38.48;100867.25;4999701;28;20657;-73
2022/09/09 06:24:46;;;;;;;5.78;1.05;;;;;;;19.76;38.46;100862.88;5005325;28;20054;-73
2022/09/09 06:27:15;;;;;;;3.17;1.00;;;;;;;19.73;38.85;100868.16;5006537;28;20124;-74
2022/09/09 06:29:43;;;;;;;3.40;1.00;;;;;;;19.69;39.57;100862.03;5007045;28;20120;-73
2022/09/09 06:32:12;;;;;;;4.05;0.77;;;;;;;19.65;40.05;100855.94;5011891;28;20116;-74
2022/09/09 06:34:42;;;;;;;3.88;1.00;;;;;;;19.62;40.04;100852.44;5011074;28;20419;-74
2022/09/09 06:37:11;;;;;;;1.92;0.98;;;;;;;19.58;38.91;100858.59;5007701;28;20053;-75
2022/09/09 06:39:40;;;;;;;1.77;0.70;;;;;;;19.53;39.51;100857.75;5019860;28;20046;-75
2022/09/09 06:42:09;;;;;;;4.72;0.95;;;;;;;19.45;40.12;100857.78;5002518;28;20049;-76
2022/09/09 06:44:37;;;;;;;5.43;1.05;;;;;;;19.38;40.07;100862.19;5008356;28;20041;-75
2022/09/09 06:47:06;;;;;;;4.55;1.05;;;;;;;19.30;40.57;100863.97;5011545;28;20491;-75
2022/09/09 06:49:35;;;;;;;2.90;1.00;;;;;;;19.23;41.96;100857.88;5009347;28;20050;-75
2022/09/09 06:52:06;;;;;;;4.18;0.98;;;;;;;19.19;41.55;100855.28;5000530;28;20125;-74
2022/09/09 06:54:37;;;;;;;3.13;0.90;;;;;;;19.15;41.26;100856.16;4999671;28;20052;-74
2022/09/09 06:57:07;;;;;;;2.70;0.70;;;;;;;19.09;42.11;100854.47;4996599;28;20054;-75
2022/09/09 06:59:35;;;;;;;2.80;0.70;;;;;;;19.05;42.37;100858.81;5007671;28;20050;-74
2022/09/09 07:02:04;;;;;;;4.10;0.93;;;;;;;19.01;41.92;100856.22;5011140;28;20125;-72
2022/09/09 07:04:32;;;;;;;3.17;0.90;;;;;;;19.00;41.46;100855.34;5008591;28;20141;-72
2022/09/09 07:07:01;;;;;;;6.82;1.23;;;;;;;19.00;41.33;100854.50;4996794;28;20054;-72
2022/09/09 07:09:31;;;;;;;3.80;0.90;;;;;;;18.99;40.83;100843.13;4995753;28;20151;-75
2022/09/09 07:12:00;;;;;;;5.32;1.23;;;;;;;18.98;41.53;100833.50;5009055;28;20411;-73
2022/09/09 07:14:29;;;;;;;4.03;1.02;;;;;;;18.98;41.18;100843.13;4999617;28;20049;-73
2022/09/09 07:16:57;;;;;;;2.25;0.88;;;;;;;18.96;41.36;100835.25;4991289;28;20053;-72
2022/09/09 07:19:26;;;;;;;3.50;0.90;;;;;;;18.94;42.13;100826.53;4993871;28;20457;-74
2022/09/09 07:21:55;;;;;;;5.43;1.00;;;;;;;18.94;41.17;100826.53;4992576;28;20516;-72
2022/09/09 07:24:24;;;;;;;2.45;0.82;;;;;;;18.94;41.83;100829.16;4993369;28;20512;-72
2022/09/09 07:26:54;;;;;;;3.63;0.90;;;;;;;18.95;41.37;100827.44;4991351;28;20073;-73
2022/09/09 07:29:23;;;;;;;3.33;1.15;;;;;;;18.95;41.57;100830.91;5002371;28;20496;-73
2022/09/09 07:31:52;;;;;;;5.32;1.30;;;;;;;18.95;41.09;100830.91;4992783;28;20046;-72
2022/09/09 07:34:20;;;;;;;3.65;1.00;;;;;;;18.94;41.14;100823.91;4992819;28;20055;-74
2022/09/09 07:36:57;;;;;;;3.20;1.00;;;;;;;18.93;42.11;100822.19;5001193;28;20074;-73
2022/09/09 07:39:25;;;;;;;3.15;1.05;;;;;;;18.91;41.70;100818.69;4990995;28;20133;-73
2022/09/09 07:41:56;;;;;;;4.07;1.60;;;;;;;18.90;42.35;100816.06;4988224;28;20146;-74
2022/09/09 07:44:26;;;;;;;2.85;0.95;;;;;;;18.89;41.64;100822.19;4990621;28;20058;-73
2022/09/09 07:46:55;;;;;;;3.28;1.00;;;;;;;18.87;42.21;100824.81;4991276;28;20493;-73
2022/09/09 07:49:24;;;;;;;3.00;1.10;;;;;;;18.86;42.31;100820.47;4988683;28;20054;-74
2022/09/09 07:51:52;;;;;;;3.22;1.23;;;;;;;18.85;42.30;100826.56;4991608;28;20053;-74
2022/09/09 07:54:23;;;;;;;3.28;1.38;;;;;;;18.79;41.85;100824.84;4989701;28;20057;-74
2022/09/09 07:56:52;;;;;;;6.05;1.40;;;;;;;18.77;41.95;100823.09;4987479;28;20065;-73
2022/09/09 07:59:24;;;;;;;3.03;1.05;;;;;;;18.75;42.40;100816.97;4988198;28;20497;-72
2022/09/09 08:01:54;;;;;;;3.38;1.30;;;;;;;18.72;42.71;100822.22;4984565;28;20046;-74
2022/09/09 08:04:24;;;;;;;5.85;1.30;;;;;;;18.68;42.65;100818.72;4993576;28;20081;-74
2022/09/09 08:06:55;;;;;;;2.38;1.13;;;;;;;18.66;42.98;100817.84;4991197;28;20907;-74
2022/09/09 08:09:25;;;;;;;2.47;1.20;;;;;;;18.66;42.51;100809.13;4990635;28;20054;-74
2022/09/09 08:11:54;;;;;;;4.18;1.25;;;;;;;18.63;42.40;100808.25;4996713;28;20051;-72
2022/09/09 08:14:25;;;;;;;3.30;1.10;;;;;;;18.60;41.75;100808.28;4996599;28;20049;-73
2022/09/09 08:16:54;;;;;;;3.42;1.23;;;;;;;18.61;42.37;100809.16;4990746;28;20385;-74
2022/09/09 08:19:23;;;;;;;3.47;1.05;;;;;;;18.62;42.18;100801.28;4989672;28;20056;-74
2022/09/09 08:21:51;;;;;;;4.65;1.15;;;;;;;18.61;41.76;100804.75;4987932;28;20038;-75
2022/09/09 08:24:27;;;;;;;4.53;1.38;;;;;;;18.61;42.09;100796.91;4987456;28;20727;-74
2022/09/09 08:26:56;;;;;;;2.92;0.95;;;;;;;18.52;42.21;100770.72;4995020;28;20502;-73
2022/09/09 08:29:28;;;;;;;4.65;1.48;;;;;;;18.59;42.23;100780.31;4985319;28;20078;-74
2022/09/09 08:31:58;;;;;;;2.90;1.23;;;;;;;18.58;42.18;100777.72;4991615;28;20487;-74
2022/09/09 08:34:27;;;;;;;3.05;1.05;;;;;;;18.57;42.55;100778.56;4986814;28;20427;-72
2022/09/09 08:36:57;;;;;;;2.72;1.17;;;;;;;18.55;41.85;100773.31;4987155;28;20042;-73
2022/09/09 08:39:25;;;;;;;4.43;1.10;;;;;;;18.53;41.85;100768.97;4986118;28;20051;-73
2022/09/09 08:42:18;;;;;;;3.80;1.13;;;;;;;18.53;41.64;100763.72;4988645;28;20054;-74
2022/09/09 08:45:04;;;;;;;4.25;1.30;;;;;;;18.52;41.91;100767.25;4979913;28;20168;-72
2022/09/09 08:47:40;;;;;;;2.63;1.10;;;;;;;18.51;41.84;100753.28;4984764;28;20046;-73
2022/09/09 08:50:24;;;;;;;2.78;0.90;;;;;;;18.52;41.49;100757.63;4997176;28;20716;-73
2022/09/09 08:53:02;;;;;;;2.80;1.13;;;;;;;18.53;41.87;100753.25;4989508;28;20053;-74
2022/09/09 08:55:41;;;;;;;2.13;0.80;;;;;;;18.53;41.66;100755.88;4981987;28;20078;-73
2022/09/09 08:58:15;;;;;;;2.15;1.23;;;;;;;18.52;41.00;100752.38;4991462;28;20539;-72
2022/09/09 09:01:08;;;;;;;2.20;0.80;;;;;;;18.53;41.20;100748.00;4991958;28;20046;-72
2022/09/09 09:03:45;;;;;;;2.88;1.48;;;;;;;18.56;41.43;100743.66;4980664;28;20519;-73
2022/09/09 09:06:27;;;;;;;1.73;0.70;;;;;;;18.56;41.11;100735.78;4995139;28;20058;-72
2022/09/09 09:09:02;;;;;;;2.13;1.00;;;;;;;18.57;41.33;100734.03;5009152;28;20109;-73
2022/09/09 09:11:37;;;;;;;5.03;1.38;;;;;;;18.57;41.51;100734.91;4999196;28;20054;-72
2022/09/09 09:14:13;;;;;;;5.00;1.40;;;;;;;18.56;41.42;100738.41;5006286;28;20054;-72
2022/09/09 09:16:50;;;;;;;3.38;1.20;;;;;;;18.58;41.24;100731.41;5007826;28;20049;-72
2022/09/09 09:19:22;;;;;;;3.28;1.08;;;;;;;18.59;40.94;100730.53;5008650;28;20496;-73
2022/09/09 09:21:55;;;;;;;3.00;0.95;;;;;;;18.61;40.90;100734.00;5004106;28;20485;-71
2022/09/09 09:24:33;;;;;;;4.05;1.25;;;;;;;18.63;40.71;100723.53;5007480;28;20046;-72
2022/09/09 09:27:13;;;;;;;3.25;1.20;;;;;;;18.63;40.96;100728.78;5010341;28;20137;-71
2022/09/09 09:29:44;;;;;;;2.22;1.10;;;;;;;18.61;41.44;100720.03;5008509;28;20046;-72
2022/09/09 09:32:20;;;;;;;1.52;0.80;;;;;;;18.61;41.61;100718.28;5008387;28;20054;-73
2022/09/09 09:34:53;;;;;;;4.20;0.93;;;;;;;18.61;40.84;100726.16;5006510;28;20049;-73
2022/09/09 09:37:28;;;;;;;3.20;0.98;;;;;;;18.60;41.24;100720.94;5006296;28;20049;-72
2022/09/09 09:39:57;;;;;;;3.25;1.10;;;;;;;18.57;41.54;100718.31;5006804;28;20042;-72
2022/09/09 09:42:26;;;;;;;2.70;0.98;;;;;;;18.55;41.48;100705.19;5008594;28;20050;-73
2022/09/09 09:44:55;;;;;;;4.00;0.90;;;;;;;18.54;41.56;100707.84;5006200;28;20057;-74
2022/09/09 09:47:34;;;;;;;3.40;1.05;;;;;;;18.53;41.20;100700.84;4999586;28;20516;-71
2022/09/09 09:50:04;;;;;;;2.65;1.02;;;;;;;18.54;41.27;100700.84;5007980;28;20034;-72
2022/09/09 09:52:35;;;;;;;2.97;1.05;;;;;;;18.54;41.09;100694.75;5011199;28;20532;-73
2022/09/09 09:55:14;;;;;;;2.92;1.27;;;;;;;18.54;41.67;100695.59;5014300;28;20053;-73
2022/09/09 09:57:44;;;;;;;5.20;1.30;;;;;;;18.53;41.21;100692.97;5003808;28;20060;-72
2022/09/09 10:00:17;;;;;;;2.88;1.10;;;;;;;18.54;41.16;100686.88;4999036;28;20061;-73
2022/09/09 10:02:48;;;;;;;3.50;1.10;;;;;;;18.56;41.49;100686.00;5008553;28;20255;-71
2022/09/09 10:05:19;;;;;;;3.78;1.10;;;;;;;18.54;41.76;100687.75;5012814;28;20488;-71
2022/09/09 10:08:06;;;;;;;4.63;1.48;;;;;;;18.54;41.50;100682.50;4990569;28;20088;-72
2022/09/09 10:10:48;;;;;;;4.72;1.00;;;;;;;18.53;40.80;100670.31;4996705;28;20549;-71
2022/09/09 10:13:23;;;;;;;2.97;1.25;;;;;;;18.55;41.13;100679.00;4986234;28;20057;-71
2022/09/09 10:16:07;;;;;;;1.95;1.17;;;;;;;18.55;41.51;100679.00;4989444;28;20046;-71
2022/09/09 10:18:59;;;;;;;2.60;1.25;;;;;;;18.54;41.71;100677.28;4979968;28;20061;-71
2022/09/09 10:21:44;;;;;;;3.17;1.10;;;;;;;18.53;41.36;100670.31;4978483;28;20488;-71
2022/09/09 10:24:30;;;;;;;4.43;1.23;;;;;;;18.50;41.59;100670.28;4988539;28;20053;-73
2022/09/09 10:27:06;;;;;;;4.55;1.40;;;;;;;18.48;41.47;100676.41;4986709;28;20054;-72
2022/09/09 10:29:58;;;;;;;3.85;1.08;;;;;;;18.48;41.28;100676.41;4989185;28;20054;-72
2022/09/09 10:32:42;;;;;;;3.88;1.20;;;;;;;18.46;41.45;100662.44;4996603;28;20046;-73
2022/09/09 10:35:27;;;;;;;2.63;1.20;;;;;;;18.44;41.58;100662.47;4989881;28;20501;-72
2022/09/09 10:38:13;;;;;;;4.05;1.33;;;;;;;18.43;41.91;100671.19;4988584;28;20046;-71
2022/09/09 10:40:51;;;;;;;3.72;1.20;;;;;;;18.42;41.96;100675.56;4989163;28;20050;-73
2022/09/09 10:43:32;;;;;;;3.80;1.15;;;;;;;18.41;41.44;100665.09;4987508;28;20042;-71
2022/09/09 10:46:12;;;;;;;3.25;1.30;;;;;;;18.39;41.60;100677.31;4994851;28;20451;-71
2022/09/09 10:48:59;;;;;;;2.33;1.10;;;;;;;18.37;41.88;100663.34;4984293;28;20631;-72
2022/09/09 10:51:42;;;;;;;3.33;1.33;;;;;;;18.35;42.14;100665.13;4983074;28;20101;-71
2022/09/09 10:54:34;;;;;;;5.45;1.33;;;;;;;18.32;41.64;100666.00;4982321;28;20050;-72
2022/09/09 10:57:08;;;;;;;4.32;1.58;;;;;;;18.28;42.07;100652.91;4983699;28;20043;-74
2022/09/09 10:59:42;;;;;;;4.43;1.20;;;;;;;18.24;42.32;100657.31;4985663;28;20054;-75
2022/09/09 11:02:19;;;;;;;2.83;1.42;;;;;;;18.21;42.40;100662.56;4986715;28;20731;-72
2022/09/09 11:04:55;;;;;;;4.20;1.60;;;;;;;18.19;42.40;100661.69;4984428;28;20049;-75
2022/09/09 11:07:38;;;;;;;2.30;1.23;;;;;;;18.19;42.14;100664.31;4986496;28;20716;-74
2022/09/09 11:10:16;;;;;;;2.92;1.55;;;;;;;18.16;42.64;100659.97;4986997;28;20057;-72
2022/09/09 11:12:49;;;;;;;3.78;1.48;;;;;;;18.15;43.05;100658.22;4992360;28;20050;-72
2022/09/09 11:15:22;;;;;;;5.55;1.50;;;;;;;18.13;42.48;100654.72;4989711;28;20904;-73
2022/09/09 11:17:54;;;;;;;3.08;1.38;;;;;;;18.10;42.93;100656.50;5000633;28;20133;-72
2022/09/09 11:20:25;;;;;;;3.78;1.50;;;;;;;18.08;42.96;100643.41;4987334;28;20056;-73
2022/09/09 11:23:01;;;;;;;3.92;1.67;;;;;;;18.08;41.68;100640.78;4999536;28;20267;-73
2022/09/09 11:25:36;;;;;;;3.25;1.45;;;;;;;18.12;42.10;100647.75;4993613;28;20046;-73
2022/09/09 11:28:36;;;;;;;3.33;1.58;;;;;;;18.15;41.92;100639.88;5008907;28;20054;-74
2022/09/09 11:31:23;;;;;;;9.23;1.88;;;;;;;18.16;41.79;100639.03;4989992;28;20503;-75
2022/09/09 11:34:21;;;;;;;6.45;1.95;;;;;;;18.18;42.17;100634.63;5003554;28;20117;-75
2022/09/09 11:37:17;;;;;;;4.53;1.85;;;;;;;18.23;42.27;100628.50;5002760;28;20101;-73
2022/09/09 11:40:19;;;;;;;3.47;1.77;;;;;;;18.24;41.88;100630.25;4986114;28;20051;-74
2022/09/09 11:42:49;;;;;;;2.17;1.50;;;;;;;18.23;41.75;100625.88;4990978;28;20050;-73
2022/09/09 11:45:28;;;;;;;5.05;2.03;;;;;;;18.24;41.68;100635.50;4990924;28;20058;-72
2022/09/09 11:47:58;;;;;;;5.05;1.90;;;;;;;18.22;42.01;100632.88;4990731;28;20054;-74
2022/09/09 11:50:36;;;;;;;4.20;1.35;;;;;;;18.20;42.13;100635.50;4999401;28;20049;-73
2022/09/09 11:53:24;;;;;;;3.13;1.52;;;;;;;18.17;42.51;100624.16;4995412;28;20077;-72